Aviation Digital Data Service (ADDS)

Output produced by METARs form (0343 UTC 23 November 2017)
found at http://www.aviationweather.gov/adds/metars/
 
KLAF 222327Z 2300/2324 00000KT P6SM BKN250 
     FM230800 21005KT P6SM BKN130 
     FM231100 21006KT P6SM SCT080 AMD LTD TO CLD VIS AND WIND 2302/2314
       
KLAL 222330Z 2300/2324 07005KT P6SM SCT030 BKN100 BKN200 
     FM230800 10006KT P6SM VCSH SCT010 BKN025 BKN100 
     TEMPO 2308/2312 3SM BR BKN010 
     FM231300 15007KT 5SM SHRA VCTS SCT015 BKN025CB 
     FM231600 21007KT 6SM SHRA VCTS SCT020CB BKN035
       
KLAN 222330Z 2300/2324 25005KT P6SM OVC040 
     FM230200 23005KT P6SM BKN070 
     FM232000 24010KT P6SM SCT100
       
KLAR 222322Z 2300/2324 26014KT P6SM BKN080 BKN200 
     FM231300 25015G25KT P6SM BKN250
       
KLAS 230247Z 2303/2406 22005KT P6SM SKC 
     FM231200 VRB04KT P6SM SCT250 
     FM240300 22007KT P6SM SCT250
       
KLAX 230303Z 2303/2406 23005KT P6SM SKC 
     FM230600 VRB03KT P6SM SKC 
     FM230900 05005KT P6SM SKC 
     FM231500 VRB03KT P6SM SKC 
     FM232100 27008KT P6SM SKC 
     FM240300 27005KT P6SM SKC
       
KLBB 222320Z 2300/2324 23007KT P6SM BKN300
       
KLBE 222332Z 2300/2324 31006KT P6SM OVC035 
     FM230500 00000KT P6SM SCT250 
     FM231600 25006KT P6SM SCT250
       
KLBF 222320Z 2300/2324 VRB05KT P6SM BKN250 
     FM231400 27006KT P6SM BKN250
       
KLBL 222320Z 2300/2324 VRB06KT P6SM SCT250
       
KLBT 222333Z 2300/2324 01004KT P6SM BKN250 
     FM231500 05008KT P6SM BKN250
       
KLCK 222321Z 2300/2324 34005KT P6SM SCT035 
     FM230400 00000KT P6SM SCT250 
     FM231300 21006KT P6SM BKN090
       
KLCH 222325Z 2300/2324 02010KT P6SM SKC 
     FM230100 01004KT P6SM SKC 
     FM231500 35008KT P6SM SKC
       
KLEB 222320Z 2300/2324 32007KT P6SM BKN025 
     FM230200 32008KT P6SM BKN040
       
KLEE 230304Z 2303/2324 04008KT P6SM SCT025 OVC180 
     FM230600 03006KT P6SM SCT015 BKN025 
     TEMPO 2309/2312 BKN006 BKN015 
     FM231400 09008KT P6SM SHRA SCT015 BKN025 OVC040 
     FM231600 14009KT 5SM SHRA BKN025 
     TEMPO 2318/2322 2SM +SHRA BKN012
       
KLEX 222320Z 2300/2324 03004KT P6SM FEW250 
     FM231700 21006KT P6SM FEW250
       
TAF KLFI 230200Z 2302/2408 35012KT 9999 SKC QNH3012INS 
     BECMG 2311/2312 35009KT 9999 SKC QNH3013INS 
     BECMG 2317/2318 VRB06KT 9999 SKC QNH3009INS TX11/2319Z TN02/2311Z
       
KLFK 222340Z 2300/2324 34005KT P6SM SKC 
     FM230600 VRB03KT P6SM FEW250 
     FM231300 VRB04KT P6SM BKN250
       
KLFT 222325Z 2300/2324 36010KT P6SM SKC 
     FM230100 01004KT P6SM SKC 
     FM231700 35008KT P6SM SKC
       
KLGA 230239Z 2303/2324 33015G25KT P6SM FEW050 
     FM230600 32008KT P6SM SKC 
     FM231900 29007KT P6SM FEW250
       
KLGB 222338Z 2300/2324 29006KT P6SM SKC 
     FM230300 VRB03KT P6SM SKC 
     FM232100 27006KT P6SM FEW250
       
KLGU 222320Z 2300/2324 VRB03KT P6SM BKN200
       
KLIT 222321Z 2300/2324 VRB06KT P6SM SKC 
     FM231500 24005KT P6SM SKC
       
KLLQ 222321Z 2300/2324 VRB04KT P6SM SKC 
     FM231800 34005KT P6SM SKC
       
KLMT 222320Z 2300/2324 16010KT P6SM SCT040 BKN080 
     FM232000 21011KT P6SM -RA OVC040
       
KLND 222321Z 2300/2324 VRB06KT P6SM SCT100 BKN200 
     FM230400 VRB06KT P6SM SCT100 SCT200
       
KLNK 222320Z 2300/2324 22009KT P6SM SKC 
     FM230900 29010KT P6SM SKC
       
KLNS 230329Z 2303/2324 33007KT P6SM SCT040 
     FM230700 31008KT P6SM SCT040 
     FM231500 29008KT P6SM SKC
       
KLOZ 222338Z 2300/2324 VRB03KT P6SM SKC
       
KLRD 222325Z 2300/2324 36010KT P6SM FEW250 
     FM231800 VRB04KT P6SM FEW250
       
TAF AMD KLRF 222112Z 2221/2321 02009KT 9999 FEW050 QNH3025INS 
     BECMG 2223/2224 01006KT 9999 SKC QNH3018INS TX11/2221Z TN00/2310Z LAST NO AMDS AFT 2221 NEXT 2607
       
KLRU 222320Z 2300/2324 VRB04KT P6SM SCT250 
     FM230500 33004KT P6SM FEW250 
     FM231600 VRB03KT P6SM FEW250
       
KLSE 222330Z 2300/2324 19007KT P6SM OVC070 
     FM230900 22004KT P6SM SKC 
     FM231500 28005KT P6SM FEW250
       
TAF KLSF 230100Z 2301/2407 06006KT 9999 BKN250 QNH3002INS 
     BECMG 2303/2304 05006KT 4800 BR BKN100 QNH3003INS 
     BECMG 2311/2312 07009KT 8000 -SHRA BKN020 OVC040 QNH3005INS 
     BECMG 2314/2315 07009KT 9999 NSW SCT020 BKN040 QNH2999INS TX19/2321Z TN07/2312Z
       
TAF KLSV 222303Z 2223/2405 VRB06KT 9999 FEW250 QNH3009INS TX28/2223Z TN13/2312Z LAST NO AMDS AFT 2223 NEXT 2707
       
TAF AMD KLTS 222205Z 2222/2323 35009KT 9999 FEW200 QNH3028INS 
     BECMG 2223/2224 19006KT 9999 SKC QNH3007INS TX16/2317Z TN01/2312Z LAST NO AMDS AFT 2222 NEXT 2709
       
TAF AMD KLUF 222152Z 2221/2402 10009KT 9999 FEW250 QNH3005INS 
     BECMG 2223/2224 08004KT 9999 FEW200 QNH3000INS 
     BECMG 2322/2323 VRB03KT 9999 SKC QNH2997INS TX31/2221Z TN10/2312Z LAST NO AMDS AFT 2223 NEXT 2507
       
KLVK 222339Z 2300/2324 05006KT P6SM BKN250 
     FM230300 VRB02KT P6SM OVC200 
     FM232100 29005KT P6SM SCT150 BKN200
       
KLVM 222330Z 2300/2324 26015KT P6SM BKN070 OVC200 
     TEMPO 2300/2303 23020G35KT 
     FM230300 23028G42KT P6SM SCT100 BKN200
       
KLVS 222329Z 2300/2324 16007KT P6SM SCT250 
     FM230600 02006KT P6SM BKN250 
     FM231600 16006KT P6SM BKN250 
     FM232000 19011KT P6SM BKN250
       
KLWB 222320Z 2300/2324 VRB03KT P6SM SCT250
       
KLWS 222341Z 2300/2324 11004KT P6SM SCT060 OVC090 
     FM230600 16007KT P6SM -SHRA SCT040 OVC050 
     FM231200 17007KT P6SM OVC050 WS020/24035KT 
     FM231700 17012G20KT P6SM -SHRA BKN040 OVC050 
     FM232100 24018G28KT P6SM VCSH BKN060 OVC100
       
KLWT 222341Z 2300/2324 24015KT P6SM SCT150 
     FM231900 25025G35KT P6SM SCT150
       
KLYH 222320Z 2300/2324 VRB03KT P6SM SCT250